Terminal Aerodrome Forecast
Issued by NWS Duluth, MN

Home | Current Version | Previous Version | Text Only | Print | Product List | Glossary On
Versions: 1 2 3 4 5 6 7 8 9 10 11 12 13 14 15 16 17 18 19 20 21 22
752
FTUS43 KDLH 040246 AAA
TAFDLH
TAF AMD
KDLH 040246Z 0403/0424 02014G22KT P6SM SCT100
     FM040400 36011KT P6SM SKC
     FM041600 36011G19KT P6SM SKC=

USA.gov is the U.S. government's official web portal to all federal, state and local government web resources and services.